createdAt,value
2019-04-29T00:03:48.660Z,1024.9
2019-04-29T00:09:21.287Z,1024.9
2019-04-29T00:14:53.570Z,1024.9
2019-04-29T00:20:25.888Z,1024.9
2019-04-29T00:25:58.020Z,1024.9
2019-04-29T00:31:30.259Z,1025
2019-04-29T00:37:03.521Z,1025.2
2019-04-29T00:42:35.951Z,1025.2
2019-04-29T00:59:14.841Z,1025.4
2019-04-29T02:11:23.208Z,1025.4
2019-04-29T05:14:29.765Z,1026
2019-04-29T05:20:01.935Z,1025.8
2019-04-29T05:25:33.972Z,1025.8
2019-04-29T05:31:06.127Z,1025.6
2019-04-29T05:36:39.299Z,1025.7
2019-04-29T05:42:15.965Z,1025.6
2019-04-29T05:47:42.543Z,1025.6
2019-04-29T05:53:16.076Z,1025.6
2019-04-29T05:58:47.032Z,1025.7
2019-04-29T06:04:19.248Z,1025.8
2019-04-29T06:09:51.456Z,1025.8
2019-04-29T06:15:23.518Z,1025.9
2019-04-29T06:21:08.193Z,1025.9
2019-04-29T06:26:28.010Z,1025.8
2019-04-29T06:32:00.259Z,1025.8
2019-04-29T06:37:32.483Z,1025.8
2019-04-29T06:43:04.754Z,1025.7
2019-04-29T06:48:36.949Z,1025.6
2019-04-29T06:54:09.224Z,1025.7
2019-04-29T06:59:42.858Z,1025.7
2019-04-29T07:05:13.971Z,1025.5
2019-04-29T07:10:46.410Z,1025.2
2019-04-29T07:16:21.724Z,1024.5
2019-04-29T07:21:54.012Z,1024.2
2019-04-29T07:27:25.160Z,1023.9
2019-04-29T07:32:58.410Z,1023.9
2019-04-29T07:38:40.960Z,1023.8
2019-04-29T07:44:06.631Z,1023.7
2019-04-29T07:49:40.888Z,1023.8
2019-04-29T07:55:15.188Z,1023.8
2019-04-29T08:00:50.005Z,1023.6
2019-04-29T08:06:23.762Z,1023.4
2019-04-29T08:11:58.164Z,1023.4
2019-04-29T08:17:32.704Z,1023.6
2019-04-29T08:23:07.159Z,1023.6
2019-04-29T08:28:41.643Z,1023.5
2019-04-29T08:34:18.604Z,1023.7
2019-04-29T08:40:03.669Z,1023.8
2019-04-29T08:45:24.768Z,1023.9
2019-04-29T08:50:58.969Z,1024.1
2019-04-29T08:56:32.919Z,1024.1
2019-04-29T09:02:10.065Z,1024
2019-04-29T09:07:41.041Z,1023.9
2019-04-29T09:13:15.104Z,1024
2019-04-29T09:18:48.991Z,1024
2019-04-29T09:24:23.139Z,1023.4
2019-04-29T09:29:58.713Z,1023.4
2019-04-29T09:41:07.755Z,1023
2019-04-29T09:57:53.250Z,1023.1
2019-04-29T10:03:27.787Z,1022.9
2019-04-29T10:14:38.112Z,1022.7
2019-04-29T10:20:12.653Z,1022.9
2019-04-29T10:25:51.353Z,1023
2019-04-29T10:31:25.569Z,1022.9
2019-04-29T10:36:59.789Z,1023
2019-04-29T10:42:33.962Z,1023
2019-04-29T10:48:08.034Z,1022.9
2019-04-29T10:53:42.332Z,1022.3
2019-04-29T10:59:16.804Z,1022.6
2019-04-29T11:04:51.381Z,1022.3
2019-04-29T11:10:25.993Z,1022.5
2019-04-29T11:16:00.160Z,1022.7
2019-04-29T11:21:34.304Z,1022.7
2019-04-29T11:27:11.739Z,1022.6
2019-04-29T11:32:42.409Z,1022.6
2019-04-29T11:38:16.500Z,1022.7
2019-04-29T11:43:51.170Z,1022.7
2019-04-29T11:49:24.510Z,1022.6
2019-04-29T11:54:58.539Z,1022.5
2019-04-29T12:00:32.771Z,1022
2019-04-29T12:06:07.313Z,1021.9
2019-04-29T12:11:41.790Z,1022
2019-04-29T12:17:16.096Z,1022.2
2019-04-29T12:22:50.208Z,1022.2
2019-04-29T12:28:26.790Z,1022.3
2019-04-29T12:33:58.371Z,1022.2
2019-04-29T12:39:42.647Z,1022.2
2019-04-29T12:45:18.862Z,1022.2
2019-04-29T12:50:40.751Z,1022.3
2019-04-29T12:56:14.769Z,1022.4
2019-04-29T13:01:51.664Z,1022.6
2019-04-29T13:07:22.784Z,1022.7
2019-04-29T13:12:58.176Z,1022.7
2019-04-29T13:18:30.436Z,1022.6
2019-04-29T13:24:14.503Z,1022.5
2019-04-29T13:29:38.187Z,1022.5
2019-04-29T13:35:12.922Z,1022.5
2019-04-29T13:40:46.578Z,1022.7
2019-04-29T13:46:20.437Z,1022.8
2019-04-29T13:51:54.297Z,1022.9
2019-04-29T13:57:27.983Z,1022.9
2019-04-29T14:03:02.197Z,1023
2019-04-29T14:19:46.398Z,1023
2019-04-29T14:47:43.645Z,1022.9
2019-04-29T14:53:19.373Z,1022.8
2019-04-29T14:59:05.523Z,1022.8
2019-04-29T15:37:54.854Z,1022.5
2019-04-29T15:43:46.344Z,1022.5
2019-04-29T15:49:03.157Z,1022.4
2019-04-29T15:54:37.466Z,1022.5
2019-04-29T16:00:21.052Z,1022.4
2019-04-29T16:28:05.050Z,1022.3
2019-04-29T16:33:38.805Z,1022.3
2019-04-29T16:39:12.753Z,1022.2
2019-04-29T16:44:46.532Z,1022.2
2019-04-29T16:55:55.241Z,1022.3
2019-04-29T17:07:12.094Z,1022.3
2019-04-29T17:18:10.631Z,1022.3
2019-04-29T17:40:25.483Z,1022.6
